sensor_id;sensor_type;location;lat;lon;timestamp;P1;durP1;ratioP1;P2;durP2;ratioP2
13461;SDS011;6803;45.264;5.468;2023-07-28T00:01:51;5.27;;;2.10;;
13461;SDS011;6803;45.264;5.468;2023-07-28T00:04:22;3.53;;;1.83;;
13461;SDS011;6803;45.264;5.468;2023-07-28T00:06:53;3.47;;;2.00;;
13461;SDS011;6803;45.264;5.468;2023-07-28T00:09:24;4.63;;;2.13;;
13461;SDS011;6803;45.264;5.468;2023-07-28T00:11:54;5.90;;;2.23;;
13461;SDS011;6803;45.264;5.468;2023-07-28T00:14:27;6.17;;;1.97;;
13461;SDS011;6803;45.264;5.468;2023-07-28T00:16:58;5.43;;;2.03;;
13461;SDS011;6803;45.264;5.468;2023-07-28T00:19:28;7.83;;;1.90;;
13461;SDS011;6803;45.264;5.468;2023-07-28T00:21:59;6.73;;;2.20;;
13461;SDS011;6803;45.264;5.468;2023-07-28T00:24:30;6.97;;;2.60;;
13461;SDS011;6803;45.264;5.468;2023-07-28T00:27:01;6.35;;;2.40;;
13461;SDS011;6803;45.264;5.468;2023-07-28T00:29:31;4.83;;;2.13;;
13461;SDS011;6803;45.264;5.468;2023-07-28T00:32:02;4.07;;;2.10;;
13461;SDS011;6803;45.264;5.468;2023-07-28T00:34:34;5.37;;;2.30;;
13461;SDS011;6803;45.264;5.468;2023-07-28T00:37:05;2.80;;;1.30;;
13461;SDS011;6803;45.264;5.468;2023-07-28T00:39:36;2.93;;;1.80;;
13461;SDS011;6803;45.264;5.468;2023-07-28T00:42:07;2.83;;;1.90;;
13461;SDS011;6803;45.264;5.468;2023-07-28T00:44:37;4.23;;;1.93;;
13461;SDS011;6803;45.264;5.468;2023-07-28T00:47:08;2.60;;;1.60;;
13461;SDS011;6803;45.264;5.468;2023-07-28T00:49:39;4.07;;;1.80;;
13461;SDS011;6803;45.264;5.468;2023-07-28T00:52:10;1.67;;;1.57;;
13461;SDS011;6803;45.264;5.468;2023-07-28T00:54:41;4.00;;;1.90;;
13461;SDS011;6803;45.264;5.468;2023-07-28T00:57:12;4.50;;;2.10;;
13461;SDS011;6803;45.264;5.468;2023-07-28T00:59:45;4.63;;;2.00;;
13461;SDS011;6803;45.264;5.468;2023-07-28T01:02:18;3.10;;;1.80;;
13461;SDS011;6803;45.264;5.468;2023-07-28T01:04:49;7.37;;;1.97;;
13461;SDS011;6803;45.264;5.468;2023-07-28T01:07:23;3.30;;;2.00;;
13461;SDS011;6803;45.264;5.468;2023-07-28T01:09:57;3.47;;;2.17;;
13461;SDS011;6803;45.264;5.468;2023-07-28T01:12:31;3.73;;;1.57;;
13461;SDS011;6803;45.264;5.468;2023-07-28T01:15:02;7.70;;;1.60;;
13461;SDS011;6803;45.264;5.468;2023-07-28T01:17:35;4.13;;;1.90;;
13461;SDS011;6803;45.264;5.468;2023-07-28T01:20:07;5.00;;;1.80;;
13461;SDS011;6803;45.264;5.468;2023-07-28T01:22:48;4.20;;;1.87;;
13461;SDS011;6803;45.264;5.468;2023-07-28T01:25:27;5.05;;;2.00;;
13461;SDS011;6803;45.264;5.468;2023-07-28T01:27:59;5.77;;;1.80;;
13461;SDS011;6803;45.264;5.468;2023-07-28T01:30:32;3.47;;;2.00;;
13461;SDS011;6803;45.264;5.468;2023-07-28T01:33:05;2.80;;;1.70;;
13461;SDS011;6803;45.264;5.468;2023-07-28T01:35:37;5.28;;;2.50;;
13461;SDS011;6803;45.264;5.468;2023-07-28T01:38:08;5.73;;;2.23;;
13461;SDS011;6803;45.264;5.468;2023-07-28T01:40:40;3.80;;;2.00;;
13461;SDS011;6803;45.264;5.468;2023-07-28T01:43:10;4.92;;;2.10;;
13461;SDS011;6803;45.264;5.468;2023-07-28T01:45:41;4.80;;;2.10;;
13461;SDS011;6803;45.264;5.468;2023-07-28T01:48:12;3.87;;;2.13;;
13461;SDS011;6803;45.264;5.468;2023-07-28T01:50:43;3.97;;;2.10;;
13461;SDS011;6803;45.264;5.468;2023-07-28T01:53:14;3.93;;;2.23;;
13461;SDS011;6803;45.264;5.468;2023-07-28T01:55:45;4.00;;;2.70;;
13461;SDS011;6803;45.264;5.468;2023-07-28T01:58:16;4.53;;;2.20;;
13461;SDS011;6803;45.264;5.468;2023-07-28T02:00:46;3.40;;;2.33;;
13461;SDS011;6803;45.264;5.468;2023-07-28T02:03:17;6.33;;;2.40;;
13461;SDS011;6803;45.264;5.468;2023-07-28T02:05:48;3.67;;;2.20;;
13461;SDS011;6803;45.264;5.468;2023-07-28T02:08:20;2.97;;;2.17;;
13461;SDS011;6803;45.264;5.468;2023-07-28T02:10:50;2.73;;;2.33;;
13461;SDS011;6803;45.264;5.468;2023-07-28T02:13:23;4.17;;;2.23;;
13461;SDS011;6803;45.264;5.468;2023-07-28T02:15:53;3.67;;;2.23;;
13461;SDS011;6803;45.264;5.468;2023-07-28T02:18:24;5.17;;;2.00;;
13461;SDS011;6803;45.264;5.468;2023-07-28T02:20:55;6.77;;;2.47;;
13461;SDS011;6803;45.264;5.468;2023-07-28T02:23:26;3.60;;;2.00;;
13461;SDS011;6803;45.264;5.468;2023-07-28T02:25:56;5.17;;;2.20;;
13461;SDS011;6803;45.264;5.468;2023-07-28T02:28:27;3.87;;;2.13;;
13461;SDS011;6803;45.264;5.468;2023-07-28T02:30:58;3.77;;;2.30;;
13461;SDS011;6803;45.264;5.468;2023-07-28T02:33:29;5.80;;;2.50;;
13461;SDS011;6803;45.264;5.468;2023-07-28T02:36:01;3.10;;;2.03;;
13461;SDS011;6803;45.264;5.468;2023-07-28T02:38:32;4.70;;;2.30;;
13461;SDS011;6803;45.264;5.468;2023-07-28T02:41:03;4.10;;;2.63;;
13461;SDS011;6803;45.264;5.468;2023-07-28T02:43:35;5.27;;;2.17;;
13461;SDS011;6803;45.264;5.468;2023-07-28T02:46:06;2.77;;;2.07;;
13461;SDS011;6803;45.264;5.468;2023-07-28T02:48:37;5.30;;;2.40;;
13461;SDS011;6803;45.264;5.468;2023-07-28T02:51:08;10.83;;;2.63;;
13461;SDS011;6803;45.264;5.468;2023-07-28T02:53:39;4.30;;;2.10;;
13461;SDS011;6803;45.264;5.468;2023-07-28T02:56:09;4.80;;;2.40;;
13461;SDS011;6803;45.264;5.468;2023-07-28T02:58:40;5.53;;;2.43;;
13461;SDS011;6803;45.264;5.468;2023-07-28T03:01:11;4.03;;;2.23;;
13461;SDS011;6803;45.264;5.468;2023-07-28T03:03:42;4.73;;;2.30;;
13461;SDS011;6803;45.264;5.468;2023-07-28T03:06:12;6.90;;;2.50;;
13461;SDS011;6803;45.264;5.468;2023-07-28T03:08:43;2.80;;;2.30;;
13461;SDS011;6803;45.264;5.468;2023-07-28T03:11:14;4.83;;;2.13;;
13461;SDS011;6803;45.264;5.468;2023-07-28T03:13:44;5.33;;;2.37;;
13461;SDS011;6803;45.264;5.468;2023-07-28T03:16:15;4.17;;;2.23;;
13461;SDS011;6803;45.264;5.468;2023-07-28T03:18:46;6.40;;;2.53;;
13461;SDS011;6803;45.264;5.468;2023-07-28T03:21:16;5.10;;;2.93;;
13461;SDS011;6803;45.264;5.468;2023-07-28T03:23:47;5.07;;;2.63;;
13461;SDS011;6803;45.264;5.468;2023-07-28T03:26:18;6.37;;;2.87;;
13461;SDS011;6803;45.264;5.468;2023-07-28T03:28:49;5.43;;;2.87;;
13461;SDS011;6803;45.264;5.468;2023-07-28T03:31:19;5.43;;;2.70;;
13461;SDS011;6803;45.264;5.468;2023-07-28T03:33:51;6.90;;;3.60;;
13461;SDS011;6803;45.264;5.468;2023-07-28T03:36:21;5.47;;;3.00;;
13461;SDS011;6803;45.264;5.468;2023-07-28T03:38:52;7.17;;;3.30;;
13461;SDS011;6803;45.264;5.468;2023-07-28T03:41:23;6.43;;;3.57;;
13461;SDS011;6803;45.264;5.468;2023-07-28T03:43:54;5.53;;;3.17;;
13461;SDS011;6803;45.264;5.468;2023-07-28T03:46:25;6.20;;;3.57;;
13461;SDS011;6803;45.264;5.468;2023-07-28T03:48:57;10.27;;;3.83;;
13461;SDS011;6803;45.264;5.468;2023-07-28T03:51:28;6.20;;;3.87;;
13461;SDS011;6803;45.264;5.468;2023-07-28T03:53:59;7.77;;;3.97;;
13461;SDS011;6803;45.264;5.468;2023-07-28T03:56:30;6.50;;;3.93;;
13461;SDS011;6803;45.264;5.468;2023-07-28T03:59:01;6.53;;;3.60;;
13461;SDS011;6803;45.264;5.468;2023-07-28T04:01:32;9.77;;;4.73;;
13461;SDS011;6803;45.264;5.468;2023-07-28T04:04:03;7.20;;;3.97;;
13461;SDS011;6803;45.264;5.468;2023-07-28T04:06:41;5.63;;;3.97;;
13461;SDS011;6803;45.264;5.468;2023-07-28T04:09:13;4.67;;;3.90;;
13461;SDS011;6803;45.264;5.468;2023-07-28T04:11:45;8.07;;;4.30;;
13461;SDS011;6803;45.264;5.468;2023-07-28T04:14:16;7.13;;;4.10;;
13461;SDS011;6803;45.264;5.468;2023-07-28T04:16:46;6.33;;;3.80;;
13461;SDS011;6803;45.264;5.468;2023-07-28T04:19:18;7.37;;;4.43;;
13461;SDS011;6803;45.264;5.468;2023-07-28T04:21:49;12.07;;;4.80;;
13461;SDS011;6803;45.264;5.468;2023-07-28T04:24:21;6.50;;;4.37;;
13461;SDS011;6803;45.264;5.468;2023-07-28T04:26:53;7.93;;;3.50;;
13461;SDS011;6803;45.264;5.468;2023-07-28T04:29:24;8.00;;;4.43;;
13461;SDS011;6803;45.264;5.468;2023-07-28T04:31:54;7.30;;;4.10;;
13461;SDS011;6803;45.264;5.468;2023-07-28T04:34:25;8.37;;;4.20;;
13461;SDS011;6803;45.264;5.468;2023-07-28T04:36:56;6.33;;;4.03;;
13461;SDS011;6803;45.264;5.468;2023-07-28T04:39:27;7.40;;;3.90;;
13461;SDS011;6803;45.264;5.468;2023-07-28T04:41:58;4.67;;;3.80;;
13461;SDS011;6803;45.264;5.468;2023-07-28T04:44:28;7.13;;;4.07;;
13461;SDS011;6803;45.264;5.468;2023-07-28T04:46:59;6.20;;;4.37;;
13461;SDS011;6803;45.264;5.468;2023-07-28T04:49:30;5.93;;;4.10;;
13461;SDS011;6803;45.264;5.468;2023-07-28T04:52:01;9.43;;;3.97;;
13461;SDS011;6803;45.264;5.468;2023-07-28T04:54:32;7.60;;;4.23;;
13461;SDS011;6803;45.264;5.468;2023-07-28T04:57:03;7.37;;;3.70;;
13461;SDS011;6803;45.264;5.468;2023-07-28T04:59:35;7.03;;;3.60;;
13461;SDS011;6803;45.264;5.468;2023-07-28T05:02:06;9.83;;;4.00;;
13461;SDS011;6803;45.264;5.468;2023-07-28T05:04:37;5.93;;;3.67;;
13461;SDS011;6803;45.264;5.468;2023-07-28T05:07:08;9.57;;;3.87;;
13461;SDS011;6803;45.264;5.468;2023-07-28T05:09:39;5.13;;;4.03;;
13461;SDS011;6803;45.264;5.468;2023-07-28T05:12:09;6.97;;;3.80;;
13461;SDS011;6803;45.264;5.468;2023-07-28T05:14:41;6.57;;;3.60;;
13461;SDS011;6803;45.264;5.468;2023-07-28T05:17:12;7.63;;;3.67;;
13461;SDS011;6803;45.264;5.468;2023-07-28T05:19:45;5.20;;;3.50;;
13461;SDS011;6803;45.264;5.468;2023-07-28T05:22:16;12.83;;;4.27;;
13461;SDS011;6803;45.264;5.468;2023-07-28T05:24:48;5.87;;;4.20;;
13461;SDS011;6803;45.264;5.468;2023-07-28T05:27:21;8.10;;;4.60;;
13461;SDS011;6803;45.264;5.468;2023-07-28T05:29:52;11.43;;;4.53;;
13461;SDS011;6803;45.264;5.468;2023-07-28T05:32:23;6.97;;;4.03;;
13461;SDS011;6803;45.264;5.468;2023-07-28T05:34:54;6.10;;;4.37;;
13461;SDS011;6803;45.264;5.468;2023-07-28T05:37:25;5.03;;;3.97;;
13461;SDS011;6803;45.264;5.468;2023-07-28T05:39:56;7.37;;;4.40;;
13461;SDS011;6803;45.264;5.468;2023-07-28T05:42:27;6.83;;;4.30;;
13461;SDS011;6803;45.264;5.468;2023-07-28T05:47:35;7.57;;;4.10;;
13461;SDS011;6803;45.264;5.468;2023-07-28T05:50:08;10.60;;;4.23;;
13461;SDS011;6803;45.264;5.468;2023-07-28T05:52:41;7.23;;;4.03;;
13461;SDS011;6803;45.264;5.468;2023-07-28T05:55:13;6.07;;;3.80;;
13461;SDS011;6803;45.264;5.468;2023-07-28T05:57:44;6.37;;;4.00;;
13461;SDS011;6803;45.264;5.468;2023-07-28T06:00:16;4.80;;;3.37;;
13461;SDS011;6803;45.264;5.468;2023-07-28T06:02:47;7.97;;;3.73;;
13461;SDS011;6803;45.264;5.468;2023-07-28T06:05:18;4.87;;;3.57;;
13461;SDS011;6803;45.264;5.468;2023-07-28T06:07:49;5.67;;;3.77;;
13461;SDS011;6803;45.264;5.468;2023-07-28T06:10:20;7.33;;;4.00;;
13461;SDS011;6803;45.264;5.468;2023-07-28T06:12:51;5.80;;;4.00;;
13461;SDS011;6803;45.264;5.468;2023-07-28T06:15:23;6.30;;;4.17;;
13461;SDS011;6803;45.264;5.468;2023-07-28T06:20:31;6.37;;;3.63;;
13461;SDS011;6803;45.264;5.468;2023-07-28T06:23:03;4.23;;;3.30;;
13461;SDS011;6803;45.264;5.468;2023-07-28T06:25:34;4.70;;;2.97;;
13461;SDS011;6803;45.264;5.468;2023-07-28T06:28:06;4.70;;;3.80;;
13461;SDS011;6803;45.264;5.468;2023-07-28T06:30:37;6.17;;;3.60;;
13461;SDS011;6803;45.264;5.468;2023-07-28T06:33:08;5.47;;;3.50;;
13461;SDS011;6803;45.264;5.468;2023-07-28T06:35:39;6.80;;;3.50;;
13461;SDS011;6803;45.264;5.468;2023-07-28T06:38:11;10.13;;;3.90;;
13461;SDS011;6803;45.264;5.468;2023-07-28T06:40:41;6.17;;;3.53;;
13461;SDS011;6803;45.264;5.468;2023-07-28T06:43:12;6.00;;;3.20;;
13461;SDS011;6803;45.264;5.468;2023-07-28T06:45:43;5.70;;;3.33;;
13461;SDS011;6803;45.264;5.468;2023-07-28T06:48:14;6.57;;;3.13;;
13461;SDS011;6803;45.264;5.468;2023-07-28T06:50:45;7.30;;;3.30;;
13461;SDS011;6803;45.264;5.468;2023-07-28T06:53:16;5.63;;;3.30;;
13461;SDS011;6803;45.264;5.468;2023-07-28T06:55:47;6.73;;;2.90;;
13461;SDS011;6803;45.264;5.468;2023-07-28T06:58:18;6.17;;;3.37;;
13461;SDS011;6803;45.264;5.468;2023-07-28T07:00:49;5.93;;;2.90;;
13461;SDS011;6803;45.264;5.468;2023-07-28T07:03:21;7.03;;;3.23;;
13461;SDS011;6803;45.264;5.468;2023-07-28T07:05:52;6.67;;;3.17;;
13461;SDS011;6803;45.264;5.468;2023-07-28T07:08:23;7.80;;;3.40;;
13461;SDS011;6803;45.264;5.468;2023-07-28T07:10:54;10.70;;;3.40;;
13461;SDS011;6803;45.264;5.468;2023-07-28T07:13:25;9.97;;;3.10;;
13461;SDS011;6803;45.264;5.468;2023-07-28T07:15:56;10.47;;;3.70;;
13461;SDS011;6803;45.264;5.468;2023-07-28T07:18:27;9.77;;;2.97;;
13461;SDS011;6803;45.264;5.468;2023-07-28T07:21:01;9.37;;;3.47;;
13461;SDS011;6803;45.264;5.468;2023-07-28T07:23:33;5.60;;;2.63;;
13461;SDS011;6803;45.264;5.468;2023-07-28T07:26:05;8.63;;;3.53;;
13461;SDS011;6803;45.264;5.468;2023-07-28T07:28:36;4.90;;;2.83;;
13461;SDS011;6803;45.264;5.468;2023-07-28T07:31:11;7.63;;;3.73;;
13461;SDS011;6803;45.264;5.468;2023-07-28T07:33:43;9.33;;;2.90;;
13461;SDS011;6803;45.264;5.468;2023-07-28T07:36:14;9.30;;;3.23;;
13461;SDS011;6803;45.264;5.468;2023-07-28T07:38:46;7.58;;;3.00;;
13461;SDS011;6803;45.264;5.468;2023-07-28T07:41:17;13.20;;;2.87;;
13461;SDS011;6803;45.264;5.468;2023-07-28T07:43:53;10.07;;;3.27;;
13461;SDS011;6803;45.264;5.468;2023-07-28T07:46:24;8.93;;;2.87;;
13461;SDS011;6803;45.264;5.468;2023-07-28T07:48:54;10.97;;;2.80;;
13461;SDS011;6803;45.264;5.468;2023-07-28T07:51:26;9.70;;;3.05;;
13461;SDS011;6803;45.264;5.468;2023-07-28T07:53:57;7.90;;;3.20;;
13461;SDS011;6803;45.264;5.468;2023-07-28T07:56:29;8.73;;;3.22;;
13461;SDS011;6803;45.264;5.468;2023-07-28T07:58:59;4.12;;;2.72;;
13461;SDS011;6803;45.264;5.468;2023-07-28T08:01:31;8.13;;;3.13;;
13461;SDS011;6803;45.264;5.468;2023-07-28T08:04:02;5.20;;;3.20;;
13461;SDS011;6803;45.264;5.468;2023-07-28T08:06:33;7.92;;;2.92;;
13461;SDS011;6803;45.264;5.468;2023-07-28T08:09:04;5.95;;;2.92;;
13461;SDS011;6803;45.264;5.468;2023-07-28T08:11:35;4.37;;;3.10;;
13461;SDS011;6803;45.264;5.468;2023-07-28T08:14:06;6.40;;;2.85;;
13461;SDS011;6803;45.264;5.468;2023-07-28T08:19:27;5.00;;;2.87;;
13461;SDS011;6803;45.264;5.468;2023-07-28T08:21:58;5.58;;;2.87;;
13461;SDS011;6803;45.264;5.468;2023-07-28T08:27:02;4.50;;;2.85;;
13461;SDS011;6803;45.264;5.468;2023-07-28T08:29:34;5.22;;;2.67;;
13461;SDS011;6803;45.264;5.468;2023-07-28T08:32:07;7.60;;;3.20;;
13461;SDS011;6803;45.264;5.468;2023-07-28T08:34:38;7.58;;;3.05;;
13461;SDS011;6803;45.264;5.468;2023-07-28T08:37:09;7.33;;;2.70;;
13461;SDS011;6803;45.264;5.468;2023-07-28T08:39:41;3.80;;;2.65;;
13461;SDS011;6803;45.264;5.468;2023-07-28T08:42:12;6.90;;;3.05;;
13461;SDS011;6803;45.264;5.468;2023-07-28T08:44:44;7.78;;;3.12;;
13461;SDS011;6803;45.264;5.468;2023-07-28T08:47:15;4.50;;;2.67;;
13461;SDS011;6803;45.264;5.468;2023-07-28T08:49:46;5.62;;;2.80;;
13461;SDS011;6803;45.264;5.468;2023-07-28T08:52:18;4.92;;;2.80;;
13461;SDS011;6803;45.264;5.468;2023-07-28T08:54:49;10.82;;;2.90;;
13461;SDS011;6803;45.264;5.468;2023-07-28T08:57:20;7.30;;;3.05;;
13461;SDS011;6803;45.264;5.468;2023-07-28T08:59:52;15.18;;;3.60;;
13461;SDS011;6803;45.264;5.468;2023-07-28T09:02:24;5.90;;;2.33;;
13461;SDS011;6803;45.264;5.468;2023-07-28T09:04:57;4.55;;;2.42;;
13461;SDS011;6803;45.264;5.468;2023-07-28T09:07:33;5.75;;;3.15;;
13461;SDS011;6803;45.264;5.468;2023-07-28T09:10:06;6.15;;;2.47;;
13461;SDS011;6803;45.264;5.468;2023-07-28T09:12:44;5.28;;;2.92;;
13461;SDS011;6803;45.264;5.468;2023-07-28T09:15:17;7.10;;;2.92;;
13461;SDS011;6803;45.264;5.468;2023-07-28T09:17:49;6.90;;;2.90;;
13461;SDS011;6803;45.264;5.468;2023-07-28T09:20:33;5.85;;;2.52;;
13461;SDS011;6803;45.264;5.468;2023-07-28T09:23:17;5.83;;;2.60;;
13461;SDS011;6803;45.264;5.468;2023-07-28T09:25:54;6.15;;;2.60;;
13461;SDS011;6803;45.264;5.468;2023-07-28T09:28:38;3.37;;;2.12;;
13461;SDS011;6803;45.264;5.468;2023-07-28T09:31:11;7.12;;;2.30;;
13461;SDS011;6803;45.264;5.468;2023-07-28T09:33:44;6.03;;;2.58;;
13461;SDS011;6803;45.264;5.468;2023-07-28T09:36:15;3.98;;;2.35;;
13461;SDS011;6803;45.264;5.468;2023-07-28T09:38:48;6.67;;;3.02;;
13461;SDS011;6803;45.264;5.468;2023-07-28T09:41:20;5.42;;;2.70;;
13461;SDS011;6803;45.264;5.468;2023-07-28T09:43:52;7.08;;;3.08;;
13461;SDS011;6803;45.264;5.468;2023-07-28T09:46:22;5.47;;;2.80;;
13461;SDS011;6803;45.264;5.468;2023-07-28T09:48:57;4.62;;;2.33;;
13461;SDS011;6803;45.264;5.468;2023-07-28T09:51:36;4.00;;;2.25;;
13461;SDS011;6803;45.264;5.468;2023-07-28T09:54:11;3.37;;;2.00;;
13461;SDS011;6803;45.264;5.468;2023-07-28T09:56:44;4.08;;;2.10;;
13461;SDS011;6803;45.264;5.468;2023-07-28T10:01:54;3.55;;;2.17;;
13461;SDS011;6803;45.264;5.468;2023-07-28T10:04:26;5.62;;;2.27;;
13461;SDS011;6803;45.264;5.468;2023-07-28T10:06:58;2.90;;;2.20;;
13461;SDS011;6803;45.264;5.468;2023-07-28T10:09:30;3.85;;;2.15;;
13461;SDS011;6803;45.264;5.468;2023-07-28T10:12:03;3.75;;;2.25;;
13461;SDS011;6803;45.264;5.468;2023-07-28T10:14:35;4.50;;;2.17;;
13461;SDS011;6803;45.264;5.468;2023-07-28T10:17:06;3.75;;;2.40;;
13461;SDS011;6803;45.264;5.468;2023-07-28T10:19:40;5.50;;;2.20;;
13461;SDS011;6803;45.264;5.468;2023-07-28T10:22:11;4.50;;;2.05;;
13461;SDS011;6803;45.264;5.468;2023-07-28T10:24:53;3.62;;;2.00;;
13461;SDS011;6803;45.264;5.468;2023-07-28T10:27:34;3.98;;;2.05;;
13461;SDS011;6803;45.264;5.468;2023-07-28T10:30:10;2.20;;;2.00;;
13461;SDS011;6803;45.264;5.468;2023-07-28T10:32:42;2.87;;;2.05;;
13461;SDS011;6803;45.264;5.468;2023-07-28T10:35:21;3.92;;;2.45;;
13461;SDS011;6803;45.264;5.468;2023-07-28T10:37:55;3.65;;;2.08;;
13461;SDS011;6803;45.264;5.468;2023-07-28T10:40:29;3.25;;;2.25;;
13461;SDS011;6803;45.264;5.468;2023-07-28T10:43:03;7.12;;;2.22;;
13461;SDS011;6803;45.264;5.468;2023-07-28T10:45:34;4.35;;;2.33;;
13461;SDS011;6803;45.264;5.468;2023-07-28T10:48:05;3.27;;;2.60;;
13461;SDS011;6803;45.264;5.468;2023-07-28T10:50:38;3.62;;;2.08;;
13461;SDS011;6803;45.264;5.468;2023-07-28T10:53:10;4.08;;;2.17;;
13461;SDS011;6803;45.264;5.468;2023-07-28T10:55:41;4.05;;;2.40;;
13461;SDS011;6803;45.264;5.468;2023-07-28T10:58:13;2.72;;;2.05;;
13461;SDS011;6803;45.264;5.468;2023-07-28T11:00:44;3.52;;;2.10;;
13461;SDS011;6803;45.264;5.468;2023-07-28T11:03:15;2.42;;;2.15;;
13461;SDS011;6803;45.264;5.468;2023-07-28T11:05:45;6.22;;;2.40;;
13461;SDS011;6803;45.264;5.468;2023-07-28T11:08:18;3.40;;;2.22;;
13461;SDS011;6803;45.264;5.468;2023-07-28T11:10:49;2.83;;;1.72;;
13461;SDS011;6803;45.264;5.468;2023-07-28T11:13:20;6.25;;;2.15;;
13461;SDS011;6803;45.264;5.468;2023-07-28T11:15:54;4.50;;;1.95;;
13461;SDS011;6803;45.264;5.468;2023-07-28T11:18:26;2.33;;;2.12;;
13461;SDS011;6803;45.264;5.468;2023-07-28T11:20:57;5.67;;;2.15;;
13461;SDS011;6803;45.264;5.468;2023-07-28T11:23:28;4.30;;;2.00;;
13461;SDS011;6803;45.264;5.468;2023-07-28T11:25:59;3.35;;;2.20;;
13461;SDS011;6803;45.264;5.468;2023-07-28T11:28:30;3.08;;;1.70;;
13461;SDS011;6803;45.264;5.468;2023-07-28T11:31:03;3.17;;;1.90;;
13461;SDS011;6803;45.264;5.468;2023-07-28T11:33:36;2.65;;;2.25;;
13461;SDS011;6803;45.264;5.468;2023-07-28T11:36:07;3.42;;;2.12;;
13461;SDS011;6803;45.264;5.468;2023-07-28T11:38:39;2.47;;;2.10;;
13461;SDS011;6803;45.264;5.468;2023-07-28T11:41:11;2.60;;;2.35;;
13461;SDS011;6803;45.264;5.468;2023-07-28T11:43:43;3.92;;;2.37;;
13461;SDS011;6803;45.264;5.468;2023-07-28T11:49:22;3.45;;;2.10;;
13461;SDS011;6803;45.264;5.468;2023-07-28T11:51:54;4.00;;;2.10;;
13461;SDS011;6803;45.264;5.468;2023-07-28T11:54:27;3.77;;;2.08;;
13461;SDS011;6803;45.264;5.468;2023-07-28T11:57:00;2.75;;;2.10;;
13461;SDS011;6803;45.264;5.468;2023-07-28T11:59:30;2.15;;;1.95;;
13461;SDS011;6803;45.264;5.468;2023-07-28T12:02:03;2.12;;;1.70;;
13461;SDS011;6803;45.264;5.468;2023-07-28T12:04:38;2.65;;;2.27;;
13461;SDS011;6803;45.264;5.468;2023-07-28T12:07:13;3.62;;;1.92;;
13461;SDS011;6803;45.264;5.468;2023-07-28T12:09:49;2.85;;;1.87;;
13461;SDS011;6803;45.264;5.468;2023-07-28T12:12:23;2.62;;;1.90;;
13461;SDS011;6803;45.264;5.468;2023-07-28T12:14:57;2.35;;;2.02;;
13461;SDS011;6803;45.264;5.468;2023-07-28T12:17:31;2.42;;;2.10;;
13461;SDS011;6803;45.264;5.468;2023-07-28T12:22:44;2.45;;;2.02;;
13461;SDS011;6803;45.264;5.468;2023-07-28T12:25:28;2.83;;;2.08;;
13461;SDS011;6803;45.264;5.468;2023-07-28T12:28:22;2.30;;;2.10;;
13461;SDS011;6803;45.264;5.468;2023-07-28T12:31:53;2.42;;;2.00;;
13461;SDS011;6803;45.264;5.468;2023-07-28T12:34:30;2.47;;;2.00;;
13461;SDS011;6803;45.264;5.468;2023-07-28T12:37:33;4.00;;;2.15;;
13461;SDS011;6803;45.264;5.468;2023-07-28T12:40:07;2.10;;;1.90;;
13461;SDS011;6803;45.264;5.468;2023-07-28T12:42:41;3.45;;;1.80;;
13461;SDS011;6803;45.264;5.468;2023-07-28T12:45:16;2.30;;;2.10;;
13461;SDS011;6803;45.264;5.468;2023-07-28T12:47:50;3.22;;;2.40;;
13461;SDS011;6803;45.264;5.468;2023-07-28T12:50:25;3.83;;;2.12;;
13461;SDS011;6803;45.264;5.468;2023-07-28T12:52:58;1.95;;;1.85;;
13461;SDS011;6803;45.264;5.468;2023-07-28T12:55:31;2.50;;;2.20;;
13461;SDS011;6803;45.264;5.468;2023-07-28T12:58:07;2.98;;;2.20;;
13461;SDS011;6803;45.264;5.468;2023-07-28T13:00:39;3.92;;;2.77;;
13461;SDS011;6803;45.264;5.468;2023-07-28T13:03:12;2.40;;;1.92;;
13461;SDS011;6803;45.264;5.468;2023-07-28T13:05:51;2.33;;;1.80;;
13461;SDS011;6803;45.264;5.468;2023-07-28T13:08:22;5.83;;;2.45;;
13461;SDS011;6803;45.264;5.468;2023-07-28T13:10:55;2.80;;;2.10;;
13461;SDS011;6803;45.264;5.468;2023-07-28T13:13:28;2.47;;;2.10;;
13461;SDS011;6803;45.264;5.468;2023-07-28T13:16:01;2.33;;;2.10;;
13461;SDS011;6803;45.264;5.468;2023-07-28T13:18:34;3.40;;;2.30;;
13461;SDS011;6803;45.264;5.468;2023-07-28T13:21:07;2.77;;;2.30;;
13461;SDS011;6803;45.264;5.468;2023-07-28T13:23:39;3.85;;;2.30;;
13461;SDS011;6803;45.264;5.468;2023-07-28T13:26:10;2.62;;;2.15;;
13461;SDS011;6803;45.264;5.468;2023-07-28T13:28:41;2.77;;;1.72;;
13461;SDS011;6803;45.264;5.468;2023-07-28T13:31:14;2.83;;;2.15;;
13461;SDS011;6803;45.264;5.468;2023-07-28T13:33:48;3.15;;;1.75;;
13461;SDS011;6803;45.264;5.468;2023-07-28T13:36:23;3.08;;;2.05;;
13461;SDS011;6803;45.264;5.468;2023-07-28T13:38:54;2.92;;;2.20;;
13461;SDS011;6803;45.264;5.468;2023-07-28T13:41:26;3.25;;;2.10;;
13461;SDS011;6803;45.264;5.468;2023-07-28T13:43:57;3.92;;;2.17;;
13461;SDS011;6803;45.264;5.468;2023-07-28T13:46:30;2.80;;;2.02;;
13461;SDS011;6803;45.264;5.468;2023-07-28T13:49:01;2.55;;;2.30;;
13461;SDS011;6803;45.264;5.468;2023-07-28T13:51:37;4.05;;;1.90;;
13461;SDS011;6803;45.264;5.468;2023-07-28T13:54:10;3.62;;;2.33;;
13461;SDS011;6803;45.264;5.468;2023-07-28T13:56:42;4.20;;;2.33;;
13461;SDS011;6803;45.264;5.468;2023-07-28T13:59:15;1.92;;;1.82;;
13461;SDS011;6803;45.264;5.468;2023-07-28T14:01:54;5.17;;;2.22;;
13461;SDS011;6803;45.264;5.468;2023-07-28T14:04:26;2.45;;;2.25;;
13461;SDS011;6803;45.264;5.468;2023-07-28T14:06:59;2.72;;;2.08;;
13461;SDS011;6803;45.264;5.468;2023-07-28T14:09:29;2.90;;;1.98;;
13461;SDS011;6803;45.264;5.468;2023-07-28T14:12:00;2.77;;;2.10;;
13461;SDS011;6803;45.264;5.468;2023-07-28T14:14:32;2.33;;;2.12;;
13461;SDS011;6803;45.264;5.468;2023-07-28T14:17:03;2.62;;;1.90;;
13461;SDS011;6803;45.264;5.468;2023-07-28T14:19:34;2.70;;;2.02;;
13461;SDS011;6803;45.264;5.468;2023-07-28T14:22:06;3.08;;;2.10;;
13461;SDS011;6803;45.264;5.468;2023-07-28T14:24:37;2.83;;;2.22;;
13461;SDS011;6803;45.264;5.468;2023-07-28T14:27:08;5.30;;;2.50;;
13461;SDS011;6803;45.264;5.468;2023-07-28T14:29:38;2.30;;;1.90;;
13461;SDS011;6803;45.264;5.468;2023-07-28T14:32:09;3.70;;;2.25;;
13461;SDS011;6803;45.264;5.468;2023-07-28T14:34:40;2.15;;;1.95;;
13461;SDS011;6803;45.264;5.468;2023-07-28T14:37:11;3.60;;;1.80;;
13461;SDS011;6803;45.264;5.468;2023-07-28T14:39:42;4.47;;;2.12;;
13461;SDS011;6803;45.264;5.468;2023-07-28T14:42:13;6.40;;;2.15;;
13461;SDS011;6803;45.264;5.468;2023-07-28T14:44:44;2.92;;;2.00;;
13461;SDS011;6803;45.264;5.468;2023-07-28T14:47:15;2.20;;;1.90;;
13461;SDS011;6803;45.264;5.468;2023-07-28T14:49:46;2.22;;;1.80;;
13461;SDS011;6803;45.264;5.468;2023-07-28T14:52:17;2.90;;;2.02;;
13461;SDS011;6803;45.264;5.468;2023-07-28T14:54:48;2.50;;;2.17;;
13461;SDS011;6803;45.264;5.468;2023-07-28T14:57:18;3.47;;;1.95;;
13461;SDS011;6803;45.264;5.468;2023-07-28T14:59:51;3.47;;;2.00;;
13461;SDS011;6803;45.264;5.468;2023-07-28T15:02:29;2.17;;;1.80;;
13461;SDS011;6803;45.264;5.468;2023-07-28T15:05:01;2.62;;;1.80;;
13461;SDS011;6803;45.264;5.468;2023-07-28T15:07:32;2.67;;;1.75;;
13461;SDS011;6803;45.264;5.468;2023-07-28T15:10:05;2.00;;;1.67;;
13461;SDS011;6803;45.264;5.468;2023-07-28T15:12:36;2.30;;;2.10;;
13461;SDS011;6803;45.264;5.468;2023-07-28T15:15:10;1.98;;;1.77;;
13461;SDS011;6803;45.264;5.468;2023-07-28T15:17:41;4.00;;;2.05;;
13461;SDS011;6803;45.264;5.468;2023-07-28T15:20:12;2.05;;;1.80;;
13461;SDS011;6803;45.264;5.468;2023-07-28T15:22:44;2.35;;;1.90;;
13461;SDS011;6803;45.264;5.468;2023-07-28T15:25:15;2.55;;;1.70;;
13461;SDS011;6803;45.264;5.468;2023-07-28T15:27:46;2.02;;;1.82;;
13461;SDS011;6803;45.264;5.468;2023-07-28T15:30:17;2.47;;;1.95;;
13461;SDS011;6803;45.264;5.468;2023-07-28T15:32:47;2.15;;;1.95;;
13461;SDS011;6803;45.264;5.468;2023-07-28T15:35:18;4.60;;;2.42;;
13461;SDS011;6803;45.264;5.468;2023-07-28T15:37:49;4.17;;;1.82;;
13461;SDS011;6803;45.264;5.468;2023-07-28T15:40:20;2.33;;;2.12;;
13461;SDS011;6803;45.264;5.468;2023-07-28T15:42:51;4.10;;;2.20;;
13461;SDS011;6803;45.264;5.468;2023-07-28T15:45:22;2.20;;;2.00;;
13461;SDS011;6803;45.264;5.468;2023-07-28T15:47:52;2.35;;;1.92;;
13461;SDS011;6803;45.264;5.468;2023-07-28T15:50:24;3.40;;;2.47;;